sensor_id;sensor_type;location;lat;lon;timestamp;temperature;humidity
59307;DHT22;47983;53.016;-2.260;2022-08-19T00:01:23;18.10;99.90
59307;DHT22;47983;53.016;-2.260;2022-08-19T00:03:57;18.10;99.90
59307;DHT22;47983;53.016;-2.260;2022-08-19T00:06:25;18.10;99.90
59307;DHT22;47983;53.016;-2.260;2022-08-19T00:08:53;18.10;99.90
59307;DHT22;47983;53.016;-2.260;2022-08-19T00:11:21;18.10;99.90
59307;DHT22;47983;53.016;-2.260;2022-08-19T00:13:52;18.10;99.90
59307;DHT22;47983;53.016;-2.260;2022-08-19T00:16:23;18.10;99.90
59307;DHT22;47983;53.016;-2.260;2022-08-19T00:18:53;18.00;99.90
59307;DHT22;47983;53.016;-2.260;2022-08-19T00:21:23;18.00;99.90
59307;DHT22;47983;53.016;-2.260;2022-08-19T00:23:51;18.00;99.90
59307;DHT22;47983;53.016;-2.260;2022-08-19T00:26:19;18.00;99.90
59307;DHT22;47983;53.016;-2.260;2022-08-19T00:28:47;18.00;99.90
59307;DHT22;47983;53.016;-2.260;2022-08-19T00:31:14;17.90;99.90
59307;DHT22;47983;53.016;-2.260;2022-08-19T00:33:43;17.80;99.90
59307;DHT22;47983;53.016;-2.260;2022-08-19T00:36:11;17.70;99.90
59307;DHT22;47983;53.016;-2.260;2022-08-19T00:38:39;17.60;99.90
59307;DHT22;47983;53.016;-2.260;2022-08-19T00:41:12;17.60;99.90
59307;DHT22;47983;53.016;-2.260;2022-08-19T00:43:40;17.50;99.90
59307;DHT22;47983;53.016;-2.260;2022-08-19T00:46:08;17.30;99.90
59307;DHT22;47983;53.016;-2.260;2022-08-19T00:48:36;17.10;99.90
59307;DHT22;47983;53.016;-2.260;2022-08-19T00:51:04;17.00;99.90
59307;DHT22;47983;53.016;-2.260;2022-08-19T00:53:32;16.90;99.90
59307;DHT22;47983;53.016;-2.260;2022-08-19T00:56:01;16.80;99.90
59307;DHT22;47983;53.016;-2.260;2022-08-19T00:58:30;16.70;99.90
59307;DHT22;47983;53.016;-2.260;2022-08-19T01:00:59;16.60;99.90
59307;DHT22;47983;53.016;-2.260;2022-08-19T01:03:27;16.50;99.90
59307;DHT22;47983;53.016;-2.260;2022-08-19T01:06:15;16.50;99.90
59307;DHT22;47983;53.016;-2.260;2022-08-19T01:08:46;16.40;99.90
59307;DHT22;47983;53.016;-2.260;2022-08-19T01:11:16;16.30;99.90
59307;DHT22;47983;53.016;-2.260;2022-08-19T01:13:44;16.20;99.90
59307;DHT22;47983;53.016;-2.260;2022-08-19T01:16:16;16.10;99.90
59307;DHT22;47983;53.016;-2.260;2022-08-19T01:18:44;16.00;99.90
59307;DHT22;47983;53.016;-2.260;2022-08-19T01:21:15;15.90;99.90
59307;DHT22;47983;53.016;-2.260;2022-08-19T01:23:43;15.90;99.90
59307;DHT22;47983;53.016;-2.260;2022-08-19T01:26:12;15.80;99.90
59307;DHT22;47983;53.016;-2.260;2022-08-19T01:28:41;15.70;99.90
59307;DHT22;47983;53.016;-2.260;2022-08-19T01:31:14;15.60;99.90
59307;DHT22;47983;53.016;-2.260;2022-08-19T01:33:54;15.60;99.90
59307;DHT22;47983;53.016;-2.260;2022-08-19T01:36:24;15.50;99.90
59307;DHT22;47983;53.016;-2.260;2022-08-19T01:38:53;15.50;99.90
59307;DHT22;47983;53.016;-2.260;2022-08-19T01:41:20;15.40;99.90
59307;DHT22;47983;53.016;-2.260;2022-08-19T01:43:51;15.40;99.90
59307;DHT22;47983;53.016;-2.260;2022-08-19T01:46:38;15.30;99.90
59307;DHT22;47983;53.016;-2.260;2022-08-19T01:49:06;15.20;99.90
59307;DHT22;47983;53.016;-2.260;2022-08-19T01:51:35;15.20;99.90
59307;DHT22;47983;53.016;-2.260;2022-08-19T01:54:07;15.10;99.90
59307;DHT22;47983;53.016;-2.260;2022-08-19T01:56:34;15.00;99.90
59307;DHT22;47983;53.016;-2.260;2022-08-19T01:59:04;15.00;99.90
59307;DHT22;47983;53.016;-2.260;2022-08-19T02:01:34;15.00;99.90
59307;DHT22;47983;53.016;-2.260;2022-08-19T02:04:02;15.00;99.90
59307;DHT22;47983;53.016;-2.260;2022-08-19T02:06:29;15.10;99.90
59307;DHT22;47983;53.016;-2.260;2022-08-19T02:08:56;15.00;99.90
59307;DHT22;47983;53.016;-2.260;2022-08-19T02:11:29;15.10;99.90
59307;DHT22;47983;53.016;-2.260;2022-08-19T02:13:59;15.00;99.90
59307;DHT22;47983;53.016;-2.260;2022-08-19T02:16:27;15.10;99.90
59307;DHT22;47983;53.016;-2.260;2022-08-19T02:18:55;15.10;99.90
59307;DHT22;47983;53.016;-2.260;2022-08-19T02:21:23;15.00;99.90
59307;DHT22;47983;53.016;-2.260;2022-08-19T02:23:50;15.10;99.90
59307;DHT22;47983;53.016;-2.260;2022-08-19T02:26:18;15.10;99.90
59307;DHT22;47983;53.016;-2.260;2022-08-19T02:28:46;15.10;99.90
59307;DHT22;47983;53.016;-2.260;2022-08-19T02:31:16;15.10;99.90
59307;DHT22;47983;53.016;-2.260;2022-08-19T02:33:45;15.10;99.90
59307;DHT22;47983;53.016;-2.260;2022-08-19T02:36:13;15.10;99.90
59307;DHT22;47983;53.016;-2.260;2022-08-19T02:38:42;15.10;99.90
59307;DHT22;47983;53.016;-2.260;2022-08-19T02:41:25;15.10;99.90
59307;DHT22;47983;53.016;-2.260;2022-08-19T02:43:57;15.10;99.90
59307;DHT22;47983;53.016;-2.260;2022-08-19T02:46:45;15.10;99.90
59307;DHT22;47983;53.016;-2.260;2022-08-19T02:49:13;15.10;99.90
59307;DHT22;47983;53.016;-2.260;2022-08-19T02:51:44;15.10;99.90
59307;DHT22;47983;53.016;-2.260;2022-08-19T02:54:12;15.10;99.90
59307;DHT22;47983;53.016;-2.260;2022-08-19T02:56:40;15.10;99.90
59307;DHT22;47983;53.016;-2.260;2022-08-19T02:59:08;15.00;99.90
59307;DHT22;47983;53.016;-2.260;2022-08-19T03:01:38;14.90;99.90
59307;DHT22;47983;53.016;-2.260;2022-08-19T03:04:07;14.80;99.90
59307;DHT22;47983;53.016;-2.260;2022-08-19T03:06:39;14.70;99.90
59307;DHT22;47983;53.016;-2.260;2022-08-19T03:09:07;14.60;99.90
59307;DHT22;47983;53.016;-2.260;2022-08-19T03:11:34;14.40;99.90
59307;DHT22;47983;53.016;-2.260;2022-08-19T03:14:02;14.30;99.90
59307;DHT22;47983;53.016;-2.260;2022-08-19T03:16:32;14.20;99.90
59307;DHT22;47983;53.016;-2.260;2022-08-19T03:19:01;14.00;99.90
59307;DHT22;47983;53.016;-2.260;2022-08-19T03:21:29;13.90;99.90
59307;DHT22;47983;53.016;-2.260;2022-08-19T03:23:58;13.80;99.90
59307;DHT22;47983;53.016;-2.260;2022-08-19T03:26:26;13.70;99.90
59307;DHT22;47983;53.016;-2.260;2022-08-19T03:28:54;13.60;99.90
59307;DHT22;47983;53.016;-2.260;2022-08-19T03:31:26;13.50;99.90
59307;DHT22;47983;53.016;-2.260;2022-08-19T03:34:15;13.50;99.90
59307;DHT22;47983;53.016;-2.260;2022-08-19T03:36:42;13.40;99.90
59307;DHT22;47983;53.016;-2.260;2022-08-19T03:39:10;13.30;99.90
59307;DHT22;47983;53.016;-2.260;2022-08-19T03:41:39;13.20;99.90
59307;DHT22;47983;53.016;-2.260;2022-08-19T03:44:15;13.20;99.90
59307;DHT22;47983;53.016;-2.260;2022-08-19T03:46:47;13.10;99.90
59307;DHT22;47983;53.016;-2.260;2022-08-19T03:49:14;13.10;99.90
59307;DHT22;47983;53.016;-2.260;2022-08-19T03:51:44;13.00;99.90
59307;DHT22;47983;53.016;-2.260;2022-08-19T03:54:13;13.00;99.90
59307;DHT22;47983;53.016;-2.260;2022-08-19T03:56:41;12.90;99.90
59307;DHT22;47983;53.016;-2.260;2022-08-19T03:59:10;12.90;99.90
59307;DHT22;47983;53.016;-2.260;2022-08-19T04:01:38;12.90;99.90
59307;DHT22;47983;53.016;-2.260;2022-08-19T04:04:05;12.80;99.90
59307;DHT22;47983;53.016;-2.260;2022-08-19T04:06:36;12.80;99.90
59307;DHT22;47983;53.016;-2.260;2022-08-19T04:09:07;12.80;99.90
59307;DHT22;47983;53.016;-2.260;2022-08-19T04:11:36;12.70;99.90
59307;DHT22;47983;53.016;-2.260;2022-08-19T04:14:11;12.70;99.90
59307;DHT22;47983;53.016;-2.260;2022-08-19T04:16:39;12.60;99.90
59307;DHT22;47983;53.016;-2.260;2022-08-19T04:19:06;12.60;99.90
59307;DHT22;47983;53.016;-2.260;2022-08-19T04:21:34;12.60;99.90
59307;DHT22;47983;53.016;-2.260;2022-08-19T04:24:02;12.60;99.90
59307;DHT22;47983;53.016;-2.260;2022-08-19T04:26:31;12.60;99.90
59307;DHT22;47983;53.016;-2.260;2022-08-19T04:28:59;12.60;99.90
59307;DHT22;47983;53.016;-2.260;2022-08-19T04:31:29;12.50;99.90
59307;DHT22;47983;53.016;-2.260;2022-08-19T04:33:57;12.50;99.90
59307;DHT22;47983;53.016;-2.260;2022-08-19T04:36:27;12.50;99.90
59307;DHT22;47983;53.016;-2.260;2022-08-19T04:38:55;12.50;99.90
59307;DHT22;47983;53.016;-2.260;2022-08-19T04:41:23;12.40;99.90
59307;DHT22;47983;53.016;-2.260;2022-08-19T04:44:10;12.40;99.90
59307;DHT22;47983;53.016;-2.260;2022-08-19T04:46:38;12.40;99.90
59307;DHT22;47983;53.016;-2.260;2022-08-19T04:49:18;12.30;99.90
59307;DHT22;47983;53.016;-2.260;2022-08-19T04:51:46;12.30;99.90
59307;DHT22;47983;53.016;-2.260;2022-08-19T04:54:15;12.20;99.90
59307;DHT22;47983;53.016;-2.260;2022-08-19T04:57:03;12.20;99.90
59307;DHT22;47983;53.016;-2.260;2022-08-19T04:59:34;12.10;99.90
59307;DHT22;47983;53.016;-2.260;2022-08-19T05:02:02;12.10;99.90
59307;DHT22;47983;53.016;-2.260;2022-08-19T05:04:29;12.10;99.90
59307;DHT22;47983;53.016;-2.260;2022-08-19T05:06:59;12.00;99.90
59307;DHT22;47983;53.016;-2.260;2022-08-19T05:09:28;12.00;99.90
59307;DHT22;47983;53.016;-2.260;2022-08-19T05:12:16;12.00;99.90
59307;DHT22;47983;53.016;-2.260;2022-08-19T05:14:44;12.00;99.90
59307;DHT22;47983;53.016;-2.260;2022-08-19T05:17:14;11.90;99.90
59307;DHT22;47983;53.016;-2.260;2022-08-19T05:20:03;11.90;99.90
59307;DHT22;47983;53.016;-2.260;2022-08-19T05:22:50;11.90;99.90
59307;DHT22;47983;53.016;-2.260;2022-08-19T05:25:18;11.90;99.90
59307;DHT22;47983;53.016;-2.260;2022-08-19T05:27:47;11.80;99.90
59307;DHT22;47983;53.016;-2.260;2022-08-19T05:30:14;11.80;99.90
59307;DHT22;47983;53.016;-2.260;2022-08-19T05:32:42;11.80;99.90
59307;DHT22;47983;53.016;-2.260;2022-08-19T05:35:10;11.80;99.90
59307;DHT22;47983;53.016;-2.260;2022-08-19T05:37:39;11.80;99.90
59307;DHT22;47983;53.016;-2.260;2022-08-19T05:40:09;11.80;99.90
59307;DHT22;47983;53.016;-2.260;2022-08-19T05:42:40;11.80;99.90
59307;DHT22;47983;53.016;-2.260;2022-08-19T05:45:07;11.80;99.90
59307;DHT22;47983;53.016;-2.260;2022-08-19T05:47:35;11.80;99.90
59307;DHT22;47983;53.016;-2.260;2022-08-19T05:50:08;11.80;99.90
59307;DHT22;47983;53.016;-2.260;2022-08-19T05:52:36;11.80;99.90
59307;DHT22;47983;53.016;-2.260;2022-08-19T05:55:09;11.80;99.90
59307;DHT22;47983;53.016;-2.260;2022-08-19T05:57:38;11.90;99.90
59307;DHT22;47983;53.016;-2.260;2022-08-19T06:00:06;11.90;99.90
59307;DHT22;47983;53.016;-2.260;2022-08-19T06:02:38;11.90;99.90
59307;DHT22;47983;53.016;-2.260;2022-08-19T06:05:06;11.90;99.90
59307;DHT22;47983;53.016;-2.260;2022-08-19T06:07:36;11.90;99.90
59307;DHT22;47983;53.016;-2.260;2022-08-19T06:10:04;11.90;99.90
59307;DHT22;47983;53.016;-2.260;2022-08-19T06:12:33;11.90;99.90
59307;DHT22;47983;53.016;-2.260;2022-08-19T06:15:03;12.00;99.90
59307;DHT22;47983;53.016;-2.260;2022-08-19T06:17:31;12.00;99.90
59307;DHT22;47983;53.016;-2.260;2022-08-19T06:19:59;12.10;99.90
59307;DHT22;47983;53.016;-2.260;2022-08-19T06:22:27;12.20;99.90
59307;DHT22;47983;53.016;-2.260;2022-08-19T06:24:55;12.20;99.90
59307;DHT22;47983;53.016;-2.260;2022-08-19T06:27:22;12.30;99.90
59307;DHT22;47983;53.016;-2.260;2022-08-19T06:29:50;12.40;99.90
59307;DHT22;47983;53.016;-2.260;2022-08-19T06:32:17;12.50;99.90
59307;DHT22;47983;53.016;-2.260;2022-08-19T06:34:46;12.50;99.90
59307;DHT22;47983;53.016;-2.260;2022-08-19T06:37:14;12.60;99.90
59307;DHT22;47983;53.016;-2.260;2022-08-19T06:39:42;12.70;99.90
59307;DHT22;47983;53.016;-2.260;2022-08-19T06:42:10;12.80;99.90
59307;DHT22;47983;53.016;-2.260;2022-08-19T06:44:40;12.90;99.90
59307;DHT22;47983;53.016;-2.260;2022-08-19T06:47:10;12.90;99.90
59307;DHT22;47983;53.016;-2.260;2022-08-19T06:49:41;13.00;99.90
59307;DHT22;47983;53.016;-2.260;2022-08-19T06:52:12;13.00;99.90
59307;DHT22;47983;53.016;-2.260;2022-08-19T06:54:40;13.10;99.90
59307;DHT22;47983;53.016;-2.260;2022-08-19T06:57:23;13.20;99.90
59307;DHT22;47983;53.016;-2.260;2022-08-19T06:59:51;13.30;99.90
59307;DHT22;47983;53.016;-2.260;2022-08-19T07:02:19;13.30;99.90
59307;DHT22;47983;53.016;-2.260;2022-08-19T07:04:48;13.40;99.90
59307;DHT22;47983;53.016;-2.260;2022-08-19T07:07:20;13.40;99.90
59307;DHT22;47983;53.016;-2.260;2022-08-19T07:09:49;13.50;99.90
59307;DHT22;47983;53.016;-2.260;2022-08-19T07:12:24;13.60;99.90
59307;DHT22;47983;53.016;-2.260;2022-08-19T07:14:53;13.60;99.90
59307;DHT22;47983;53.016;-2.260;2022-08-19T07:17:20;13.70;99.90
59307;DHT22;47983;53.016;-2.260;2022-08-19T07:19:48;13.70;99.90
59307;DHT22;47983;53.016;-2.260;2022-08-19T07:22:20;13.80;99.90
59307;DHT22;47983;53.016;-2.260;2022-08-19T07:24:51;13.90;99.90
59307;DHT22;47983;53.016;-2.260;2022-08-19T07:27:18;14.00;99.90
59307;DHT22;47983;53.016;-2.260;2022-08-19T07:29:51;14.00;99.90
59307;DHT22;47983;53.016;-2.260;2022-08-19T07:32:24;14.10;99.90
59307;DHT22;47983;53.016;-2.260;2022-08-19T07:34:54;14.20;99.90
59307;DHT22;47983;53.016;-2.260;2022-08-19T07:37:23;14.20;99.90
59307;DHT22;47983;53.016;-2.260;2022-08-19T07:39:55;14.30;99.90
59307;DHT22;47983;53.016;-2.260;2022-08-19T07:42:23;14.40;99.90
59307;DHT22;47983;53.016;-2.260;2022-08-19T07:44:50;14.50;99.90
59307;DHT22;47983;53.016;-2.260;2022-08-19T07:47:18;14.50;99.90
59307;DHT22;47983;53.016;-2.260;2022-08-19T07:50:06;14.60;99.90
59307;DHT22;47983;53.016;-2.260;2022-08-19T07:52:35;14.70;99.90
59307;DHT22;47983;53.016;-2.260;2022-08-19T07:55:04;14.90;99.90
59307;DHT22;47983;53.016;-2.260;2022-08-19T07:57:52;14.80;99.90
59307;DHT22;47983;53.016;-2.260;2022-08-19T08:00:20;14.90;99.90
59307;DHT22;47983;53.016;-2.260;2022-08-19T08:02:51;15.00;99.90
59307;DHT22;47983;53.016;-2.260;2022-08-19T08:05:25;15.00;99.90
59307;DHT22;47983;53.016;-2.260;2022-08-19T08:08:11;15.10;99.90
59307;DHT22;47983;53.016;-2.260;2022-08-19T08:10:58;15.20;99.90
59307;DHT22;47983;53.016;-2.260;2022-08-19T08:13:27;15.30;99.90
59307;DHT22;47983;53.016;-2.260;2022-08-19T08:15:55;15.30;99.90
59307;DHT22;47983;53.016;-2.260;2022-08-19T08:18:23;15.40;99.90
59307;DHT22;47983;53.016;-2.260;2022-08-19T08:20:54;15.40;99.90
59307;DHT22;47983;53.016;-2.260;2022-08-19T08:23:22;15.50;99.90
59307;DHT22;47983;53.016;-2.260;2022-08-19T08:25:49;15.60;99.90
59307;DHT22;47983;53.016;-2.260;2022-08-19T08:28:17;15.60;99.90
59307;DHT22;47983;53.016;-2.260;2022-08-19T08:30:46;15.70;99.90
59307;DHT22;47983;53.016;-2.260;2022-08-19T08:33:17;15.80;99.90
59307;DHT22;47983;53.016;-2.260;2022-08-19T08:35:56;15.80;99.90
59307;DHT22;47983;53.016;-2.260;2022-08-19T08:38:23;15.90;99.90
59307;DHT22;47983;53.016;-2.260;2022-08-19T08:40:56;16.00;99.90
59307;DHT22;47983;53.016;-2.260;2022-08-19T08:43:35;16.00;99.90
59307;DHT22;47983;53.016;-2.260;2022-08-19T08:46:05;16.10;99.90
59307;DHT22;47983;53.016;-2.260;2022-08-19T08:51:02;16.30;99.90
59307;DHT22;47983;53.016;-2.260;2022-08-19T08:53:31;16.40;99.90
59307;DHT22;47983;53.016;-2.260;2022-08-19T08:56:06;16.50;99.90
59307;DHT22;47983;53.016;-2.260;2022-08-19T08:58:41;16.70;99.90
59307;DHT22;47983;53.016;-2.260;2022-08-19T09:01:10;16.80;99.90
59307;DHT22;47983;53.016;-2.260;2022-08-19T09:03:39;16.80;99.90
59307;DHT22;47983;53.016;-2.260;2022-08-19T09:09:00;16.90;99.90
59307;DHT22;47983;53.016;-2.260;2022-08-19T09:17:09;16.80;99.90
59307;DHT22;47983;53.016;-2.260;2022-08-19T09:19:50;17.00;99.90
59307;DHT22;47983;53.016;-2.260;2022-08-19T09:22:18;17.10;99.90
59307;DHT22;47983;53.016;-2.260;2022-08-19T09:24:52;17.10;99.90
59307;DHT22;47983;53.016;-2.260;2022-08-19T09:27:20;17.10;99.90
59307;DHT22;47983;53.016;-2.260;2022-08-19T09:30:09;17.10;99.90
59307;DHT22;47983;53.016;-2.260;2022-08-19T09:32:37;17.20;99.90
59307;DHT22;47983;53.016;-2.260;2022-08-19T09:35:09;17.20;99.90
59307;DHT22;47983;53.016;-2.260;2022-08-19T09:37:38;17.30;99.90
59307;DHT22;47983;53.016;-2.260;2022-08-19T09:40:06;17.20;99.80
59307;DHT22;47983;53.016;-2.260;2022-08-19T09:42:38;17.20;99.90
59307;DHT22;47983;53.016;-2.260;2022-08-19T09:45:17;17.30;99.90
59307;DHT22;47983;53.016;-2.260;2022-08-19T09:47:45;17.30;99.90
59307;DHT22;47983;53.016;-2.260;2022-08-19T09:50:13;17.30;99.90
59307;DHT22;47983;53.016;-2.260;2022-08-19T09:52:42;17.30;99.90
59307;DHT22;47983;53.016;-2.260;2022-08-19T09:55:23;17.40;99.90
59307;DHT22;47983;53.016;-2.260;2022-08-19T09:57:59;17.50;99.80
59307;DHT22;47983;53.016;-2.260;2022-08-19T10:00:26;17.60;99.90
59307;DHT22;47983;53.016;-2.260;2022-08-19T10:02:53;17.70;99.90
59307;DHT22;47983;53.016;-2.260;2022-08-19T10:05:21;17.80;99.80
59307;DHT22;47983;53.016;-2.260;2022-08-19T10:08:09;17.90;99.70
59307;DHT22;47983;53.016;-2.260;2022-08-19T10:10:43;18.10;99.90
59307;DHT22;47983;53.016;-2.260;2022-08-19T10:13:14;18.20;99.40
59307;DHT22;47983;53.016;-2.260;2022-08-19T10:15:43;18.20;98.90
59307;DHT22;47983;53.016;-2.260;2022-08-19T10:18:14;18.30;99.00
59307;DHT22;47983;53.016;-2.260;2022-08-19T10:20:45;18.30;98.60
59307;DHT22;47983;53.016;-2.260;2022-08-19T10:23:18;18.40;98.20
59307;DHT22;47983;53.016;-2.260;2022-08-19T10:25:48;18.40;97.40
59307;DHT22;47983;53.016;-2.260;2022-08-19T10:28:15;18.40;97.90
59307;DHT22;47983;53.016;-2.260;2022-08-19T10:30:46;18.30;98.10
59307;DHT22;47983;53.016;-2.260;2022-08-19T10:33:14;18.30;98.70
59307;DHT22;47983;53.016;-2.260;2022-08-19T10:36:06;18.30;98.30
59307;DHT22;47983;53.016;-2.260;2022-08-19T10:38:35;18.30;97.90
59307;DHT22;47983;53.016;-2.260;2022-08-19T10:41:13;18.40;98.10
59307;DHT22;47983;53.016;-2.260;2022-08-19T10:43:40;18.60;98.10
59307;DHT22;47983;53.016;-2.260;2022-08-19T10:46:09;18.80;97.60
59307;DHT22;47983;53.016;-2.260;2022-08-19T10:48:42;19.00;97.40
59307;DHT22;47983;53.016;-2.260;2022-08-19T10:51:11;19.10;96.20
59307;DHT22;47983;53.016;-2.260;2022-08-19T10:53:58;19.10;96.00
59307;DHT22;47983;53.016;-2.260;2022-08-19T10:56:26;19.10;96.70
59307;DHT22;47983;53.016;-2.260;2022-08-19T10:59:12;19.30;97.10
59307;DHT22;47983;53.016;-2.260;2022-08-19T11:01:42;19.60;95.90
59307;DHT22;47983;53.016;-2.260;2022-08-19T11:04:10;19.90;96.00
59307;DHT22;47983;53.016;-2.260;2022-08-19T11:06:41;20.10;95.30
59307;DHT22;47983;53.016;-2.260;2022-08-19T11:09:10;20.20;95.20
59307;DHT22;47983;53.016;-2.260;2022-08-19T11:11:38;20.20;95.30
59307;DHT22;47983;53.016;-2.260;2022-08-19T11:14:13;20.10;95.50
59307;DHT22;47983;53.016;-2.260;2022-08-19T11:16:41;20.00;95.30
59307;DHT22;47983;53.016;-2.260;2022-08-19T11:19:10;20.00;95.50
59307;DHT22;47983;53.016;-2.260;2022-08-19T11:21:39;19.90;95.40
59307;DHT22;47983;53.016;-2.260;2022-08-19T11:24:08;19.90;95.80
59307;DHT22;47983;53.016;-2.260;2022-08-19T11:26:37;19.90;96.00
59307;DHT22;47983;53.016;-2.260;2022-08-19T11:29:07;19.90;96.40
59307;DHT22;47983;53.016;-2.260;2022-08-19T11:31:39;20.10;95.50
59307;DHT22;47983;53.016;-2.260;2022-08-19T11:34:08;20.10;95.80
59307;DHT22;47983;53.016;-2.260;2022-08-19T11:36:37;20.30;94.30
59307;DHT22;47983;53.016;-2.260;2022-08-19T11:39:06;20.40;94.80
59307;DHT22;47983;53.016;-2.260;2022-08-19T11:41:34;20.50;93.20
59307;DHT22;47983;53.016;-2.260;2022-08-19T11:44:02;20.60;92.30
59307;DHT22;47983;53.016;-2.260;2022-08-19T11:46:31;20.50;92.10
59307;DHT22;47983;53.016;-2.260;2022-08-19T11:48:59;20.30;92.00
59307;DHT22;47983;53.016;-2.260;2022-08-19T11:51:28;20.20;91.80
59307;DHT22;47983;53.016;-2.260;2022-08-19T11:53:56;20.20;91.30
59307;DHT22;47983;53.016;-2.260;2022-08-19T11:56:24;20.20;91.90
59307;DHT22;47983;53.016;-2.260;2022-08-19T11:58:52;20.40;91.40
59307;DHT22;47983;53.016;-2.260;2022-08-19T12:01:21;20.40;91.50
59307;DHT22;47983;53.016;-2.260;2022-08-19T12:03:49;20.50;91.80
59307;DHT22;47983;53.016;-2.260;2022-08-19T12:06:19;20.60;90.90
59307;DHT22;47983;53.016;-2.260;2022-08-19T12:08:47;20.50;91.00
59307;DHT22;47983;53.016;-2.260;2022-08-19T12:11:14;20.60;91.60
59307;DHT22;47983;53.016;-2.260;2022-08-19T12:13:42;20.70;90.90
59307;DHT22;47983;53.016;-2.260;2022-08-19T12:16:14;20.80;91.40
59307;DHT22;47983;53.016;-2.260;2022-08-19T12:18:42;21.00;90.90
59307;DHT22;47983;53.016;-2.260;2022-08-19T12:21:13;21.20;89.90
59307;DHT22;47983;53.016;-2.260;2022-08-19T12:23:41;21.20;89.50
59307;DHT22;47983;53.016;-2.260;2022-08-19T12:26:09;21.20;88.40
59307;DHT22;47983;53.016;-2.260;2022-08-19T12:28:37;21.10;88.70
59307;DHT22;47983;53.016;-2.260;2022-08-19T12:31:05;20.90;89.80
59307;DHT22;47983;53.016;-2.260;2022-08-19T12:33:32;20.80;90.40
59307;DHT22;47983;53.016;-2.260;2022-08-19T12:36:00;20.90;91.20
59307;DHT22;47983;53.016;-2.260;2022-08-19T12:38:29;20.90;89.40
59307;DHT22;47983;53.016;-2.260;2022-08-19T12:40:56;20.80;89.10
59307;DHT22;47983;53.016;-2.260;2022-08-19T12:43:26;20.60;90.20
59307;DHT22;47983;53.016;-2.260;2022-08-19T12:45:54;20.40;90.20
59307;DHT22;47983;53.016;-2.260;2022-08-19T12:48:22;20.40;90.70
59307;DHT22;47983;53.016;-2.260;2022-08-19T12:51:01;20.40;91.00
59307;DHT22;47983;53.016;-2.260;2022-08-19T12:53:32;20.50;91.00
59307;DHT22;47983;53.016;-2.260;2022-08-19T12:56:00;20.50;90.50
59307;DHT22;47983;53.016;-2.260;2022-08-19T12:58:28;20.40;90.90
59307;DHT22;47983;53.016;-2.260;2022-08-19T13:00:56;20.40;91.00
59307;DHT22;47983;53.016;-2.260;2022-08-19T13:03:24;20.40;91.20
59307;DHT22;47983;53.016;-2.260;2022-08-19T13:05:56;20.50;91.30
59307;DHT22;47983;53.016;-2.260;2022-08-19T13:08:23;20.70;90.70
59307;DHT22;47983;53.016;-2.260;2022-08-19T13:10:51;20.70;90.60
59307;DHT22;47983;53.016;-2.260;2022-08-19T13:13:18;20.90;91.20
59307;DHT22;47983;53.016;-2.260;2022-08-19T13:15:46;21.50;91.30
59307;DHT22;47983;53.016;-2.260;2022-08-19T13:18:14;22.20;89.70
59307;DHT22;47983;53.016;-2.260;2022-08-19T13:20:41;22.90;88.70
59307;DHT22;47983;53.016;-2.260;2022-08-19T13:23:18;23.60;84.80
59307;DHT22;47983;53.016;-2.260;2022-08-19T13:25:54;24.10;80.80
59307;DHT22;47983;53.016;-2.260;2022-08-19T13:28:22;24.10;76.10
59307;DHT22;47983;53.016;-2.260;2022-08-19T13:30:55;23.90;76.40
59307;DHT22;47983;53.016;-2.260;2022-08-19T13:33:41;23.50;75.10
59307;DHT22;47983;53.016;-2.260;2022-08-19T13:36:09;23.40;78.40
59307;DHT22;47983;53.016;-2.260;2022-08-19T13:38:36;23.80;78.30
59307;DHT22;47983;53.016;-2.260;2022-08-19T13:41:05;24.40;76.90
59307;DHT22;47983;53.016;-2.260;2022-08-19T13:43:38;24.90;73.20
59307;DHT22;47983;53.016;-2.260;2022-08-19T13:46:08;24.70;72.40
59307;DHT22;47983;53.016;-2.260;2022-08-19T13:48:36;24.60;73.20
59307;DHT22;47983;53.016;-2.260;2022-08-19T13:51:04;24.50;73.20
59307;DHT22;47983;53.016;-2.260;2022-08-19T13:53:32;24.60;74.00
59307;DHT22;47983;53.016;-2.260;2022-08-19T13:55:59;24.90;71.70
59307;DHT22;47983;53.016;-2.260;2022-08-19T13:58:27;25.30;72.40
59307;DHT22;47983;53.016;-2.260;2022-08-19T14:00:54;25.50;70.50
59307;DHT22;47983;53.016;-2.260;2022-08-19T14:03:21;25.10;69.10
59307;DHT22;47983;53.016;-2.260;2022-08-19T14:05:50;24.60;68.60
59307;DHT22;47983;53.016;-2.260;2022-08-19T14:08:18;23.90;69.70
59307;DHT22;47983;53.016;-2.260;2022-08-19T14:10:45;23.30;71.10
59307;DHT22;47983;53.016;-2.260;2022-08-19T14:13:14;22.90;72.90
59307;DHT22;47983;53.016;-2.260;2022-08-19T14:15:42;22.60;73.50
59307;DHT22;47983;53.016;-2.260;2022-08-19T14:18:09;22.30;74.30
59307;DHT22;47983;53.016;-2.260;2022-08-19T14:20:37;22.10;75.00
59307;DHT22;47983;53.016;-2.260;2022-08-19T14:23:04;22.00;74.20
59307;DHT22;47983;53.016;-2.260;2022-08-19T14:25:32;21.90;75.00
59307;DHT22;47983;53.016;-2.260;2022-08-19T14:28:01;21.70;76.00
59307;DHT22;47983;53.016;-2.260;2022-08-19T14:30:32;21.70;76.70
59307;DHT22;47983;53.016;-2.260;2022-08-19T14:33:00;22.10;79.00
59307;DHT22;47983;53.016;-2.260;2022-08-19T14:35:28;22.60;76.70
59307;DHT22;47983;53.016;-2.260;2022-08-19T14:37:56;23.10;74.10
59307;DHT22;47983;53.016;-2.260;2022-08-19T14:40:27;23.30;73.00
59307;DHT22;47983;53.016;-2.260;2022-08-19T14:42:58;23.40;73.20
59307;DHT22;47983;53.016;-2.260;2022-08-19T14:45:27;23.50;74.40
59307;DHT22;47983;53.016;-2.260;2022-08-19T14:47:55;23.50;73.40
59307;DHT22;47983;53.016;-2.260;2022-08-19T14:50:22;23.40;72.90
59307;DHT22;47983;53.016;-2.260;2022-08-19T14:52:56;23.10;73.50
59307;DHT22;47983;53.016;-2.260;2022-08-19T14:55:24;22.90;73.80
59307;DHT22;47983;53.016;-2.260;2022-08-19T14:57:51;22.90;74.90
59307;DHT22;47983;53.016;-2.260;2022-08-19T15:00:19;23.30;76.20
59307;DHT22;47983;53.016;-2.260;2022-08-19T15:02:46;24.00;74.40
59307;DHT22;47983;53.016;-2.260;2022-08-19T15:05:14;24.50;72.20
59307;DHT22;47983;53.016;-2.260;2022-08-19T15:07:41;25.10;71.20
59307;DHT22;47983;53.016;-2.260;2022-08-19T15:10:10;25.10;68.80
59307;DHT22;47983;53.016;-2.260;2022-08-19T15:12:38;24.80;68.50
59307;DHT22;47983;53.016;-2.260;2022-08-19T15:15:08;24.50;69.90
59307;DHT22;47983;53.016;-2.260;2022-08-19T15:17:35;24.40;70.30
59307;DHT22;47983;53.016;-2.260;2022-08-19T15:20:13;24.40;71.80
59307;DHT22;47983;53.016;-2.260;2022-08-19T15:22:40;24.70;71.60
59307;DHT22;47983;53.016;-2.260;2022-08-19T15:25:09;25.20;70.60
59307;DHT22;47983;53.016;-2.260;2022-08-19T15:27:38;25.30;68.80
59307;DHT22;47983;53.016;-2.260;2022-08-19T15:30:08;25.10;69.30
59307;DHT22;47983;53.016;-2.260;2022-08-19T15:32:36;25.10;70.60
59307;DHT22;47983;53.016;-2.260;2022-08-19T15:35:04;25.10;69.90
59307;DHT22;47983;53.016;-2.260;2022-08-19T15:37:32;24.90;69.60
59307;DHT22;47983;53.016;-2.260;2022-08-19T15:40:04;24.70;70.80
59307;DHT22;47983;53.016;-2.260;2022-08-19T15:42:32;24.60;70.80
59307;DHT22;47983;53.016;-2.260;2022-08-19T15:45:02;24.30;70.10